Time;durP1;ratioP1;P1;durP2;ratioP2;P2;SDS_P1;SDS_P2;PMS_P1;PMS_P2;Temp;Humidity;BMP_temperature;BMP_pressure;BME280_temperature;BME280_humidity;BME280_pressure;Samples;Min_cycle;Max_cycle;Signal;HPM_P1;HPM_P2
2021/09/11 00:01:43;;;;;;;;;4.75;4.75;;;;;19.94;65.65;101068.38;5066494;27;46969;-79
2021/09/11 00:04:08;;;;;;;;;6.00;5.00;;;;;19.86;65.58;101069.19;5060307;28;45651;-78
2021/09/11 00:06:33;;;;;;;;;4.00;2.75;;;;;19.84;65.73;101076.47;5067101;28;45562;-79
2021/09/11 00:08:59;;;;;;;;;4.00;3.25;;;;;19.84;65.48;101072.97;5070093;27;46859;-79
2021/09/11 00:11:24;;;;;;;;;6.50;5.75;;;;;19.80;65.58;101080.44;5080093;27;45696;-79
2021/09/11 00:13:49;;;;;;;;;5.50;5.25;;;;;19.73;65.63;101078.56;5081951;27;45621;-79
2021/09/11 00:16:16;;;;;;;;;4.25;4.25;;;;;19.70;65.71;101069.88;5081613;27;45855;-79
2021/09/11 00:18:41;;;;;;;;;4.25;3.50;;;;;19.69;65.67;101062.09;5072653;28;47221;-79
2021/09/11 00:21:07;;;;;;;;;4.00;4.00;;;;;19.74;65.62;101069.59;5061319;27;46880;-81
2021/09/11 00:23:32;;;;;;;;;4.75;4.50;;;;;19.75;65.43;101071.28;5068724;28;46256;-78
2021/09/11 00:25:59;;;;;;;;;4.00;3.50;;;;;19.73;65.73;101068.75;5065788;28;46072;-79
2021/09/11 00:28:25;;;;;;;;;4.50;3.50;;;;;19.67;65.26;101061.41;5067890;27;46491;-80
2021/09/11 00:30:51;;;;;;;;;4.50;3.25;;;;;19.45;65.20;101025.53;5079131;27;46365;-79
2021/09/11 00:33:16;;;;;;;;;6.25;5.00;;;;;19.66;65.41;101068.53;5095733;27;45792;-80
2021/09/11 00:35:43;;;;;;;;;3.50;3.00;;;;;19.72;65.66;101074.22;5072046;27;45698;-78
2021/09/11 00:38:08;;;;;;;;;4.75;4.00;;;;;19.65;65.39;101064.22;5072950;28;47407;-81
2021/09/11 00:40:34;;;;;;;;;4.50;4.00;;;;;19.65;65.22;101063.38;5070925;27;47135;-81
2021/09/11 00:42:59;;;;;;;;;4.25;4.25;;;;;19.66;65.50;101067.72;5069581;27;45844;-81
2021/09/11 00:45:25;;;;;;;;;2.50;2.50;;;;;19.62;65.40;101063.69;5075535;28;45669;-82
2021/09/11 00:47:51;;;;;;;;;3.75;3.25;;;;;19.65;65.38;101066.03;5064119;27;46199;-80
2021/09/11 00:50:18;;;;;;;;;5.00;3.25;;;;;19.62;65.13;101066.34;5062959;27;45992;-82
2021/09/11 00:52:45;;;;;;;;;4.50;4.50;;;;;19.61;65.21;101062.88;5104957;27;46109;-82
2021/09/11 00:55:12;;;;;;;;;4.25;3.75;;;;;19.60;65.46;101063.84;5068718;27;45960;-80
2021/09/11 00:57:41;;;;;;;;;2.00;2.00;;;;;19.49;64.68;101049.97;5065125;27;47196;-83
2021/09/11 01:00:07;;;;;;;;;4.50;3.50;;;;;19.57;65.03;101071.31;5068975;27;45854;-79
2021/09/11 01:02:34;;;;;;;;;4.00;3.75;;;;;19.47;65.09;101057.28;5058950;28;45816;-79
2021/09/11 01:05:00;;;;;;;;;3.75;3.75;;;;;19.49;64.90;101077.38;5062471;27;45688;-80
2021/09/11 01:07:28;;;;;;;;;3.50;3.50;;;;;19.47;64.48;101081.22;5073920;27;46585;-80
2021/09/11 01:09:53;;;;;;;;;5.50;4.25;;;;;19.51;64.86;101082.56;5078024;27;45930;-82
2021/09/11 01:12:19;;;;;;;;;3.75;3.75;;;;;19.47;64.72;101082.03;5081531;27;45703;-80
2021/09/11 01:14:44;;;;;;;;;2.75;2.75;;;;;19.40;64.83;101077.47;5060831;28;46251;-81
2021/09/11 01:17:16;;;;;;;;;4.00;3.75;;;;;19.41;64.64;101074.66;5078297;27;47574;-81
2021/09/11 01:19:42;;;;;;;;;5.50;4.25;;;;;19.44;64.82;101087.63;5074316;27;45906;-81
2021/09/11 01:22:15;;;;;;;;;2.75;2.75;;;;;19.32;64.76;101070.28;5069713;27;45889;-81
2021/09/11 01:25:02;;;;;;;;;4.00;4.00;;;;;19.33;64.98;101081.72;5067361;28;45610;-80
2021/09/11 01:27:28;;;;;;;;;2.50;2.50;;;;;19.34;64.81;101094.84;5065317;28;46356;-79
2021/09/11 01:29:59;;;;;;;;;5.25;4.50;;;;;19.25;64.64;101083.34;5056293;28;45905;-79
2021/09/11 01:32:29;;;;;;;;;4.00;3.75;;;;;19.11;64.57;101067.09;5065099;27;45806;-79
2021/09/11 01:34:54;;;;;;;;;3.25;2.50;;;;;19.21;64.92;101084.63;5082705;27;45944;-78
2021/09/11 01:37:20;;;;;;;;;2.50;2.00;;;;;19.19;64.78;101083.09;5060407;28;46437;-79
2021/09/11 01:39:49;;;;;;;;;6.00;5.50;;;;;19.09;64.67;101087.66;5071097;28;46144;-80
2021/09/11 01:42:22;;;;;;;;;3.50;3.25;;;;;19.10;64.71;101099.97;5077952;27;46371;-80
2021/09/11 01:44:49;;;;;;;;;4.00;3.50;;;;;18.88;65.08;101063.25;5093771;27;45661;-77
2021/09/11 01:47:15;;;;;;;;;6.75;5.00;;;;;18.95;64.66;101080.25;5070307;27;45826;-78
2021/09/11 01:49:42;;;;;;;;;3.50;3.50;;;;;18.89;64.94;101081.69;5063377;27;45785;-76
2021/09/11 01:52:08;;;;;;;;;4.00;3.50;;;;;18.99;64.81;101095.72;5069744;27;45787;-80
2021/09/11 01:54:35;;;;;;;;;3.75;3.75;;;;;18.95;64.59;101104.16;5074031;27;45798;-79
2021/09/11 01:57:01;;;;;;;;;4.50;4.50;;;;;18.95;64.97;101099.63;5073708;27;45696;-79
2021/09/11 01:59:26;;;;;;;;;5.00;4.00;;;;;18.89;64.93;101089.66;5073333;27;45999;-79
2021/09/11 02:01:52;;;;;;;;;2.75;2.75;;;;;18.91;64.88;101092.13;5071343;27;45941;-78
2021/09/11 02:04:17;;;;;;;;;4.00;4.00;;;;;18.89;64.92;101081.69;5066424;27;46019;-79
2021/09/11 02:06:42;;;;;;;;;4.00;4.00;;;;;18.90;64.60;101085.97;5070477;28;46265;-78
2021/09/11 02:09:08;;;;;;;;;5.00;5.00;;;;;18.85;64.64;101082.94;5064173;28;46015;-78
2021/09/11 02:11:33;;;;;;;;;5.00;5.00;;;;;18.85;64.78;101089.09;5064632;27;45683;-78
2021/09/11 02:13:59;;;;;;;;;7.00;5.00;;;;;18.79;64.62;101084.38;5069480;27;46483;-79
2021/09/11 02:16:24;;;;;;;;;5.50;4.00;;;;;18.81;64.33;101095.69;5069298;28;45730;-80
2021/09/11 02:18:50;;;;;;;;;4.25;4.00;;;;;18.71;64.63;101081.66;5074718;27;45867;-81
2021/09/11 02:21:15;;;;;;;;;4.00;3.75;;;;;18.81;64.43;101092.19;5074104;27;45671;-79
2021/09/11 02:23:40;;;;;;;;;5.25;4.25;;;;;18.72;64.58;101080.69;5072573;27;45563;-78
2021/09/11 02:26:06;;;;;;;;;4.00;4.00;;;;;18.81;64.61;101094.84;5072604;27;47340;-79
2021/09/11 02:28:31;;;;;;;;;3.75;3.25;;;;;18.71;64.37;101072.84;5057627;27;45985;-78
2021/09/11 02:30:56;;;;;;;;;3.50;3.50;;;;;18.78;64.02;101087.22;5068678;27;45732;-80
2021/09/11 02:33:22;;;;;;;;;4.00;3.00;;;;;18.80;64.40;101083.41;5087347;27;45761;-79
2021/09/11 02:35:47;;;;;;;;;4.00;4.00;;;;;18.83;64.38;101090.25;5086745;27;46382;-78
2021/09/11 02:38:12;;;;;;;;;3.00;3.00;;;;;18.75;63.97;101063.59;5081276;27;46644;-78
2021/09/11 02:40:38;;;;;;;;;1.50;1.50;;;;;18.85;63.89;101078.47;5063647;27;46195;-80
2021/09/11 02:43:03;;;;;;;;;3.25;3.25;;;;;18.86;64.42;101074.84;5070684;27;45703;-80
2021/09/11 02:45:28;;;;;;;;;4.00;3.50;;;;;18.80;63.77;101069.28;5075729;27;47215;-81
2021/09/11 02:47:54;;;;;;;;;5.25;4.00;;;;;18.87;63.75;101073.03;5069377;28;47060;-80
2021/09/11 02:50:19;;;;;;;;;5.25;3.75;;;;;18.87;63.93;101080.97;5064549;28;45702;-82
2021/09/11 02:52:44;;;;;;;;;4.00;4.00;;;;;18.81;63.75;101069.16;5070363;27;45720;-83
2021/09/11 02:55:10;;;;;;;;;3.50;3.25;;;;;18.86;63.73;101081.97;5089119;27;46687;-81
2021/09/11 02:57:35;;;;;;;;;4.00;4.00;;;;;18.80;63.94;101079.91;5071916;27;45935;-80
2021/09/11 03:00:01;;;;;;;;;4.25;3.00;;;;;18.74;63.77;101075.19;5081583;27;45835;-81
2021/09/11 03:02:26;;;;;;;;;4.00;4.00;;;;;18.76;63.90;101075.88;5081313;27;45874;-83
2021/09/11 03:04:52;;;;;;;;;5.00;4.50;;;;;18.70;63.92;101074.66;5076359;27;46217;-80
2021/09/11 03:07:17;;;;;;;;;4.00;2.50;;;;;18.72;64.07;101078.03;5072608;27;45966;-80
2021/09/11 03:09:42;;;;;;;;;4.50;4.00;;;;;18.72;64.19;101085.16;5068433;27;46868;-81
2021/09/11 03:12:08;;;;;;;;;4.25;3.00;;;;;18.68;64.00;101081.94;5083215;27;46220;-82
2021/09/11 03:14:33;;;;;;;;;3.00;3.00;;;;;18.67;63.81;101079.47;5064897;28;46526;-79
2021/09/11 03:16:59;;;;;;;;;4.00;3.00;;;;;18.65;64.23;101074.28;5066910;27;47258;-79
2021/09/11 03:19:24;;;;;;;;;5.00;4.00;;;;;18.63;64.39;101073.59;5073445;27;45836;-82
2021/09/11 03:21:50;;;;;;;;;4.00;3.50;;;;;18.60;63.97;101068.59;5088410;27;46245;-78
2021/09/11 03:24:15;;;;;;;;;5.00;3.50;;;;;18.60;63.96;101078.38;5074447;27;46183;-83
2021/09/11 03:26:41;;;;;;;;;3.00;3.00;;;;;18.53;63.93;101074.59;5071695;27;45724;-81
2021/09/11 03:29:06;;;;;;;;;3.50;3.50;;;;;18.58;64.25;101078.50;5055031;28;45697;-79
2021/09/11 03:31:32;;;;;;;;;3.00;3.00;;;;;18.54;64.27;101070.97;5073598;27;47200;-83
2021/09/11 03:33:58;;;;;;;;;2.00;2.00;;;;;18.51;64.11;101069.47;5079215;27;46438;-83
2021/09/11 03:36:23;;;;;;;;;3.25;3.25;;;;;18.56;64.49;101071.69;5079327;27;46523;-81
2021/09/11 03:38:48;;;;;;;;;2.00;2.00;;;;;18.51;64.25;101068.63;5070478;27;45511;-84
2021/09/11 03:41:16;;;;;;;;;2.00;2.00;;;;;18.57;63.92;101087.44;5077905;27;45692;-84
2021/09/11 03:43:41;;;;;;;;;4.25;4.00;;;;;18.52;64.26;101079.06;5071945;27;45687;-83
2021/09/11 03:46:07;;;;;;;;;3.00;3.00;;;;;18.46;64.14;101067.22;5073534;27;46164;-83
2021/09/11 03:48:33;;;;;;;;;3.25;3.25;;;;;18.40;64.41;101057.25;5070537;27;46084;-82
2021/09/11 03:50:58;;;;;;;;;3.00;3.00;;;;;18.44;64.20;101071.88;5073148;27;46039;-78
2021/09/11 03:53:24;;;;;;;;;4.00;3.25;;;;;18.50;64.65;101081.06;5071265;27;45731;-79
2021/09/11 03:55:50;;;;;;;;;2.75;2.50;;;;;18.47;64.27;101089.31;5063151;27;46552;-78
2021/09/11 03:58:15;;;;;;;;;3.25;3.00;;;;;18.39;64.43;101081.25;5065793;27;45738;-79
2021/09/11 04:00:41;;;;;;;;;3.50;3.00;;;;;18.37;64.48;101081.41;5073095;27;45946;-82
2021/09/11 04:03:07;;;;;;;;;2.00;2.00;;;;;18.30;64.20;101077.66;5066817;27;45632;-78
2021/09/11 04:05:32;;;;;;;;;3.25;3.25;;;;;18.30;64.39;101090.91;5071683;27;46889;-82
2021/09/11 04:07:58;;;;;;;;;2.00;2.00;;;;;18.27;64.49;101087.72;5068587;27;45609;-80
2021/09/11 04:10:23;;;;;;;;;4.25;3.00;;;;;18.23;64.16;101084.56;5073230;27;45811;-78
2021/09/11 04:12:49;;;;;;;;;3.00;2.25;;;;;18.22;64.60;101093.47;5072538;27;45878;-81
2021/09/11 04:15:14;;;;;;;;;1.25;1.25;;;;;18.19;64.59;101093.75;5070189;27;45611;-78
2021/09/11 04:17:39;;;;;;;;;2.00;2.00;;;;;18.19;64.30;101092.94;5068134;27;45901;-79
2021/09/11 04:20:06;;;;;;;;;2.00;2.00;;;;;17.99;64.34;101061.19;5074883;27;45550;-80
2021/09/11 04:22:31;;;;;;;;;3.25;2.75;;;;;18.13;64.71;101085.56;5072063;27;45735;-79
2021/09/11 04:24:56;;;;;;;;;4.25;3.00;;;;;18.13;64.26;101093.53;5071536;27;46098;-80
2021/09/11 04:27:22;;;;;;;;;2.00;2.00;;;;;18.08;64.18;101087.81;5073762;27;46069;-81
2021/09/11 04:29:47;;;;;;;;;4.00;3.00;;;;;18.07;64.88;101096.75;5067667;27;45997;-81
2021/09/11 04:32:12;;;;;;;;;2.00;2.00;;;;;18.02;64.29;101100.69;5075111;27;46930;-78
2021/09/11 04:34:38;;;;;;;;;0.00;0.00;;;;;17.82;64.83;101080.50;5071375;27;45699;-78
2021/09/11 04:37:04;;;;;;;;;1.75;1.75;;;;;17.95;64.83;101109.34;5080641;27;45646;-78
2021/09/11 04:39:29;;;;;;;;;3.75;3.50;;;;;17.91;65.13;101100.03;5063818;27;45784;-79
2021/09/11 04:41:55;;;;;;;;;3.00;3.00;;;;;17.89;64.54;101092.22;5079871;27;45840;-80
2021/09/11 04:44:20;;;;;;;;;3.75;3.00;;;;;17.85;64.93;101090.00;5070622;27;46124;-80
2021/09/11 04:46:45;;;;;;;;;2.00;2.00;;;;;17.85;65.29;101093.47;5065058;28;45742;-79
2021/09/11 04:49:11;;;;;;;;;3.00;2.50;;;;;17.84;64.72;101088.31;5059985;27;45857;-79
2021/09/11 04:51:36;;;;;;;;;3.75;3.50;;;;;17.77;64.94;101082.75;5068314;27;46451;-78
2021/09/11 04:54:02;;;;;;;;;7.50;4.25;;;;;17.79;65.11;101091.41;5067330;27;45621;-78
2021/09/11 04:56:27;;;;;;;;;4.00;4.00;;;;;17.75;65.31;101091.84;5076415;27;45668;-79
2021/09/11 04:58:52;;;;;;;;;3.00;3.00;;;;;17.80;65.48;101108.97;5074625;27;45787;-79
2021/09/11 05:01:18;;;;;;;;;5.00;5.00;;;;;17.80;65.43;101113.44;5066324;27;46293;-81
2021/09/11 05:03:43;;;;;;;;;4.00;4.00;;;;;17.77;65.37;101103.94;5066768;28;46186;-81
2021/09/11 05:06:10;;;;;;;;;6.00;5.00;;;;;17.78;64.90;101107.44;5073929;28;45770;-81
2021/09/11 05:08:36;;;;;;;;;5.00;5.00;;;;;17.79;65.50;101109.13;5070418;28;45735;-81
2021/09/11 05:11:02;;;;;;;;;4.50;4.25;;;;;17.63;65.75;101080.56;5071599;27;45760;-80
2021/09/11 05:13:27;;;;;;;;;5.25;4.25;;;;;17.79;65.13;101109.13;5069249;27;47026;-81
2021/09/11 05:15:53;;;;;;;;;3.00;3.00;;;;;17.67;65.51;101095.19;5088607;27;45730;-83
2021/09/11 05:18:18;;;;;;;;;4.00;3.00;;;;;17.78;65.02;101110.94;5081108;27;45734;-81
2021/09/11 05:20:44;;;;;;;;;3.00;2.00;;;;;17.75;65.61;101108.56;5078153;27;45572;-79
2021/09/11 05:23:09;;;;;;;;;3.00;2.50;;;;;17.76;65.26;101112.88;5064228;27;46197;-80
2021/09/11 05:25:34;;;;;;;;;4.00;4.00;;;;;17.75;65.63;101115.69;5071890;27;45810;-81
2021/09/11 05:28:00;;;;;;;;;4.00;3.75;;;;;17.74;65.50;101111.38;5067436;27;46276;-79
2021/09/11 05:30:25;;;;;;;;;4.00;3.00;;;;;17.72;65.24;101114.16;5056342;27;46518;-79
2021/09/11 05:32:51;;;;;;;;;5.00;3.00;;;;;17.72;65.59;101123.91;5061441;27;46554;-80
2021/09/11 05:35:16;;;;;;;;;4.75;3.25;;;;;17.71;65.34;101120.41;5072192;27;45944;-82
2021/09/11 05:37:41;;;;;;;;;2.25;2.00;;;;;17.71;65.90;101122.22;5072365;27;45657;-82
2021/09/11 05:40:07;;;;;;;;;4.00;3.00;;;;;17.64;65.41;101105.25;5067959;27;46442;-79
2021/09/11 05:42:36;;;;;;;;;3.00;3.00;;;;;17.62;65.50;101108.03;5080100;27;47045;-80
2021/09/11 05:45:05;;;;;;;;;4.00;3.00;;;;;17.67;65.92;101123.50;5086596;27;46109;-81
2021/09/11 05:47:31;;;;;;;;;3.75;3.75;;;;;17.54;65.58;101100.75;5064916;27;45808;-80
2021/09/11 05:49:57;;;;;;;;;4.50;3.00;;;;;17.61;65.50;101117.78;5070785;27;46261;-82
2021/09/11 05:52:23;;;;;;;;;3.75;3.25;;;;;17.64;65.89;101129.09;5067105;27;45820;-83
2021/09/11 05:54:49;;;;;;;;;4.25;3.50;;;;;17.67;65.24;101128.81;5073497;27;46133;-80
2021/09/11 05:57:14;;;;;;;;;2.25;2.25;;;;;17.57;65.64;101118.19;5073235;27;47325;-78
2021/09/11 05:59:40;;;;;;;;;2.50;2.50;;;;;17.63;65.43;101143.31;5063371;28;46380;-79
2021/09/11 06:02:06;;;;;;;;;3.25;3.25;;;;;17.63;65.40;101132.72;5067914;27;46405;-78
2021/09/11 06:04:31;;;;;;;;;3.00;3.00;;;;;17.59;65.89;101138.31;5064077;27;45880;-79
2021/09/11 06:06:57;;;;;;;;;3.00;3.00;;;;;17.64;65.91;101150.31;5073130;27;46131;-78
2021/09/11 06:09:22;;;;;;;;;4.00;3.25;;;;;17.63;66.04;101151.28;5065416;27;45706;-79
2021/09/11 06:11:48;;;;;;;;;4.25;4.00;;;;;17.64;65.91;101155.59;5091715;27;45785;-78
2021/09/11 06:14:13;;;;;;;;;3.00;3.00;;;;;17.65;65.55;101163.41;5076020;27;45673;-78
2021/09/11 06:16:39;;;;;;;;;3.50;3.00;;;;;17.63;65.22;101159.22;5078673;27;45708;-78
2021/09/11 06:19:04;;;;;;;;;4.00;2.00;;;;;17.65;65.90;101160.78;5073244;27;46647;-78
2021/09/11 06:21:29;;;;;;;;;2.75;2.25;;;;;17.73;65.80;101166.19;5063638;27;45740;-78
2021/09/11 06:23:55;;;;;;;;;2.25;2.00;;;;;17.72;65.64;101166.31;5085020;27;45627;-79
2021/09/11 06:26:20;;;;;;;;;4.00;4.00;;;;;17.78;65.82;101173.72;5081128;27;46595;-79
2021/09/11 06:28:46;;;;;;;;;3.00;2.75;;;;;17.80;65.87;101180.56;5070197;27;46710;-80
2021/09/11 06:31:11;;;;;;;;;4.25;1.25;;;;;17.84;65.20;101173.16;5069524;27;45701;-79
2021/09/11 06:33:36;;;;;;;;;3.00;3.00;;;;;17.85;65.45;101167.72;5076923;27;45771;-77
2021/09/11 06:36:02;;;;;;;;;3.00;3.00;;;;;17.89;65.23;101174.41;5073848;27;45574;-77
2021/09/11 06:38:27;;;;;;;;;4.00;1.75;;;;;17.93;65.12;101159.03;5075147;27;46577;-77
2021/09/11 06:40:53;;;;;;;;;3.25;2.75;;;;;17.89;65.49;101158.47;5083251;27;46100;-77
2021/09/11 06:43:18;;;;;;;;;1.00;1.00;;;;;17.99;65.45;101167.25;5072181;27;45612;-76
2021/09/11 06:45:44;;;;;;;;;2.25;2.00;;;;;18.03;65.15;101165.97;5076767;27;45716;-75
2021/09/11 06:48:09;;;;;;;;;3.00;2.00;;;;;18.03;65.22;101167.78;5085248;27;46315;-76
2021/09/11 06:50:35;;;;;;;;;1.25;1.00;;;;;18.01;65.16;101167.13;5048969;28;47688;-76
2021/09/11 06:53:00;;;;;;;;;2.50;1.75;;;;;18.03;64.94;101170.44;5067963;27;45809;-76
2021/09/11 06:55:25;;;;;;;;;1.00;1.00;;;;;18.10;64.89;101170.72;5069896;27;45716;-78
2021/09/11 06:57:51;;;;;;;;;1.00;1.00;;;;;18.12;64.69;101169.59;5084141;27;47444;-75
2021/09/11 07:00:17;;;;;;;;;1.00;1.00;;;;;18.15;64.67;101182.56;5077903;27;46104;-75
2021/09/11 07:02:42;;;;;;;;;1.00;1.00;;;;;18.17;64.45;101187.72;5064056;27;46050;-75
2021/09/11 07:05:08;;;;;;;;;1.00;1.00;;;;;18.18;64.27;101195.56;5071656;27;45825;-77
2021/09/11 07:07:34;;;;;;;;;1.25;1.00;;;;;18.21;64.57;101192.59;5066967;28;46902;-75
2021/09/11 07:09:59;;;;;;;;;2.00;1.00;;;;;18.22;64.21;101198.75;5065563;27;46366;-77
2021/09/11 07:12:25;;;;;;;;;2.00;1.00;;;;;18.23;64.01;101203.06;5064171;27;45833;-74
2021/09/11 07:14:50;;;;;;;;;0.25;0.25;;;;;18.19;64.04;101199.03;5074017;27;45759;-75
2021/09/11 07:17:16;;;;;;;;;1.25;1.00;;;;;18.23;64.18;101201.25;5065838;27;45549;-76
2021/09/11 07:19:41;;;;;;;;;1.00;0.00;;;;;18.21;63.46;101197.91;5068495;27;46804;-76
2021/09/11 07:22:07;;;;;;;;;0.75;0.25;;;;;18.29;63.79;101210.47;5079364;27;45670;-77
2021/09/11 07:24:32;;;;;;;;;1.25;1.00;;;;;18.30;63.86;101204.19;5069116;27;46139;-77
2021/09/11 07:26:57;;;;;;;;;1.00;1.00;;;;;18.32;63.91;101200.38;5064799;27;47450;-77
2021/09/11 07:29:23;;;;;;;;;1.50;0.75;;;;;18.31;63.32;101195.22;5067334;27;47124;-77
2021/09/11 07:31:48;;;;;;;;;2.00;1.00;;;;;18.38;63.40;101201.63;5069270;27;45806;-77
2021/09/11 07:34:14;;;;;;;;;1.00;1.00;;;;;18.35;63.46;101194.78;5072636;27;45841;-78
2021/09/11 07:36:39;;;;;;;;;1.00;1.00;;;;;18.42;63.18;101195.03;5067424;27;47171;-77
2021/09/11 07:39:05;;;;;;;;;1.25;0.75;;;;;18.40;63.37;101203.19;5057767;27;46078;-77
2021/09/11 07:41:31;;;;;;;;;0.50;0.50;;;;;18.42;63.17;101195.03;5078145;27;45897;-76
2021/09/11 07:43:58;;;;;;;;;0.25;0.25;;;;;18.46;63.40;101207.88;5074114;27;45709;-76
2021/09/11 07:46:23;;;;;;;;;1.75;1.25;;;;;18.43;62.75;101205.53;5066432;27;48439;-75
2021/09/11 07:48:48;;;;;;;;;1.75;0.75;;;;;18.47;62.88;101208.72;5059752;27;45753;-76
2021/09/11 07:51:14;;;;;;;;;2.00;1.00;;;;;18.50;63.00;101207.59;5080799;27;45627;-77
2021/09/11 07:53:40;;;;;;;;;1.50;1.00;;;;;18.56;62.75;101204.41;5079348;27;45844;-78
2021/09/11 07:56:06;;;;;;;;;2.50;1.75;;;;;18.58;62.72;101211.22;5086172;27;47321;-74
2021/09/11 07:58:32;;;;;;;;;1.00;1.00;;;;;18.60;62.86;101213.75;5059523;27;46984;-77
2021/09/11 08:01:00;;;;;;;;;1.25;1.00;;;;;18.59;62.88;101210.25;5061099;27;45747;-76
2021/09/11 08:03:25;;;;;;;;;1.00;1.00;;;;;18.62;62.27;101217.09;5056734;28;45751;-77
2021/09/11 08:05:51;;;;;;;;;0.75;0.75;;;;;18.65;62.02;101217.63;5065194;27;47811;-77
2021/09/11 08:08:16;;;;;;;;;1.00;1.00;;;;;18.68;62.22;101214.66;5065569;27;46149;-76
2021/09/11 08:10:42;;;;;;;;;1.00;1.00;;;;;18.71;62.47;101219.69;5065222;27;46587;-76
2021/09/11 08:13:07;;;;;;;;;1.50;1.25;;;;;18.72;62.32;101223.19;5070782;27;46007;-76
2021/09/11 08:15:32;;;;;;;;;2.00;2.00;;;;;18.76;62.52;101232.53;5079167;27;46110;-77
2021/09/11 08:18:00;;;;;;;;;2.00;0.50;;;;;18.81;62.07;101238.22;5064527;27;45955;-74
2021/09/11 08:20:32;;;;;;;;;3.00;2.00;;;;;18.84;62.35;101238.75;5063168;27;45668;-77
2021/09/11 08:22:57;;;;;;;;;1.50;1.50;;;;;18.86;61.96;101235.97;5061547;28;47372;-76
2021/09/11 08:25:23;;;;;;;;;0.50;0.50;;;;;18.85;61.79;101237.78;5075287;27;47313;-73
2021/09/11 08:27:48;;;;;;;;;2.00;1.25;;;;;18.86;61.24;101234.16;5069981;27;47101;-77
2021/09/11 08:30:13;;;;;;;;;2.25;0.50;;;;;18.93;61.37;101252.16;5061317;28;45772;-77
2021/09/11 08:32:39;;;;;;;;;1.50;1.00;;;;;18.91;61.45;101249.63;5066527;28;45644;-76
2021/09/11 08:35:05;;;;;;;;;0.50;0.50;;;;;18.97;60.70;101246.41;5065294;27;46323;-77
2021/09/11 08:37:30;;;;;;;;;1.00;1.00;;;;;18.91;60.72;101233.72;5067286;28;46306;-78
2021/09/11 08:39:56;;;;;;;;;0.75;0.50;;;;;18.92;60.57;101235.38;5063945;27;45908;-77
2021/09/11 08:42:21;;;;;;;;;0.00;0.00;;;;;18.96;60.16;101243.88;5080205;27;45747;-77
2021/09/11 08:44:47;;;;;;;;;0.75;0.75;;;;;19.02;59.14;101246.78;5086010;27;45708;-77
2021/09/11 08:47:13;;;;;;;;;0.50;0.50;;;;;19.04;59.52;101241.34;5072891;27;46039;-77
2021/09/11 08:49:38;;;;;;;;;0.00;0.00;;;;;19.05;59.17;101259.78;5083889;27;45849;-78
2021/09/11 08:52:07;;;;;;;;;0.00;0.00;;;;;19.03;59.07;101253.78;5073274;27;45819;-78
2021/09/11 08:54:33;;;;;;;;;0.50;0.50;;;;;19.08;59.09;101253.34;5070598;27;47606;-77
2021/09/11 08:57:17;;;;;;;;;0.75;0.00;;;;;19.13;59.13;101264.34;5094746;27;47331;-78
2021/09/11 08:59:42;;;;;;;;;1.00;1.00;;;;;19.15;59.44;101254.41;5079251;27;45774;-77
2021/09/11 09:02:09;;;;;;;;;0.75;0.75;;;;;19.15;58.67;101246.44;5076189;27;45625;-77
2021/09/11 09:04:49;;;;;;;;;1.25;1.25;;;;;19.16;58.59;101240.16;5074678;27;45599;-77
2021/09/11 09:07:39;;;;;;;;;1.00;1.00;;;;;19.17;58.46;101237.34;5073174;27;45936;-77
2021/09/11 09:10:09;;;;;;;;;0.50;0.50;;;;;19.23;58.50;101255.34;5075213;27;45774;-78
2021/09/11 09:12:44;;;;;;;;;1.00;1.00;;;;;19.28;58.59;101258.38;5082896;27;45598;-76
2021/09/11 09:15:14;;;;;;;;;1.00;0.75;;;;;19.33;58.19;101271.22;5072127;27;47564;-77
2021/09/11 09:17:43;;;;;;;;;1.00;1.00;;;;;19.36;58.47;101255.00;5070662;28;47115;-78
2021/09/11 09:20:14;;;;;;;;;2.00;1.50;;;;;19.33;58.56;101254.44;5072458;27;45699;-77
2021/09/11 09:22:41;;;;;;;;;1.00;1.00;;;;;19.36;58.18;101243.53;5072644;27;45582;-77
2021/09/11 09:25:29;;;;;;;;;0.75;0.75;;;;;19.45;58.17;101254.13;5073614;27;46409;-75
2021/09/11 09:28:15;;;;;;;;;1.00;1.00;;;;;19.47;57.84;101248.66;5059163;27;46417;-79
2021/09/11 09:30:48;;;;;;;;;2.50;1.50;;;;;19.46;57.53;101239.84;5076631;27;45511;-77
2021/09/11 09:33:26;;;;;;;;;1.00;0.75;;;;;19.54;57.42;101244.41;5063138;27;45829;-77
2021/09/11 09:35:52;;;;;;;;;1.75;1.00;;;;;19.56;57.58;101250.41;5072709;27;47701;-76
2021/09/11 09:38:18;;;;;;;;;1.50;1.25;;;;;19.57;57.44;101244.09;5073336;27;46074;-77
2021/09/11 09:40:50;;;;;;;;;2.00;2.00;;;;;19.62;57.56;101240.00;5072884;27;45725;-79
2021/09/11 09:43:42;;;;;;;;;1.00;1.00;;;;;19.67;57.40;101250.19;5072586;27;45579;-78
2021/09/11 09:46:13;;;;;;;;;0.00;0.00;;;;;19.72;57.09;101239.91;5077344;27;45531;-78
2021/09/11 09:48:40;;;;;;;;;0.75;0.75;;;;;19.74;56.92;101237.94;5074926;27;45974;-79
2021/09/11 09:51:11;;;;;;;;;1.25;1.25;;;;;19.77;57.20;101232.31;5078730;27;45660;-80
2021/09/11 09:53:40;;;;;;;;;0.75;0.75;;;;;19.86;56.90;101236.75;5072868;27;45802;-78
2021/09/11 09:56:06;;;;;;;;;0.75;0.75;;;;;19.88;56.78;101236.56;5084967;27;45591;-76
2021/09/11 09:58:32;;;;;;;;;1.25;1.00;;;;;19.87;56.95;101213.59;5071517;27;47143;-80
2021/09/11 10:00:58;;;;;;;;;1.50;1.50;;;;;19.92;56.39;101225.44;5061524;27;45822;-80
2021/09/11 10:03:24;;;;;;;;;2.00;1.00;;;;;19.98;56.45;101224.84;5071807;27;45739;-77
2021/09/11 10:05:55;;;;;;;;;0.25;0.00;;;;;20.05;56.23;101223.25;5071989;27;46244;-78
2021/09/11 10:08:22;;;;;;;;;2.50;2.00;;;;;20.09;56.31;101232.56;5071736;27;46063;-77
2021/09/11 10:10:49;;;;;;;;;1.50;1.00;;;;;20.08;55.97;101216.78;5081654;27;45794;-81
2021/09/11 10:13:17;;;;;;;;;0.75;0.75;;;;;20.18;55.55;101225.50;5061203;28;46020;-76
2021/09/11 10:15:57;;;;;;;;;1.00;1.00;;;;;20.25;55.71;101228.34;5075679;27;45750;-77
2021/09/11 10:18:32;;;;;;;;;2.00;1.50;;;;;20.29;55.76;101233.22;5080408;27;47055;-77
2021/09/11 10:21:27;;;;;;;;;1.00;1.00;;;;;20.35;55.98;101242.44;5063949;28;45776;-76
2021/09/11 10:23:56;;;;;;;;;2.50;2.00;;;;;20.39;55.32;101228.66;5075883;27;45671;-78
2021/09/11 10:26:51;;;;;;;;;1.75;1.75;;;;;20.43;55.27;101222.03;5099769;27;46422;-78
2021/09/11 10:29:34;;;;;;;;;2.00;2.00;;;;;20.48;55.24;101229.53;5084859;27;46722;-77
2021/09/11 10:31:59;;;;;;;;;1.50;1.50;;;;;20.54;55.27;101234.22;5089388;27;45624;-76
2021/09/11 10:35:00;;;;;;;;;1.00;1.00;;;;;20.59;55.00;101223.94;5076804;27;45692;-77
2021/09/11 10:37:52;;;;;;;;;3.00;2.00;;;;;20.61;55.27;101216.63;5081743;27;47972;-77
2021/09/11 10:40:36;;;;;;;;;2.50;2.00;;;;;20.71;55.28;101235.16;5075151;27;46417;-78
2021/09/11 10:43:04;;;;;;;;;0.50;0.50;;;;;20.75;55.18;101224.00;5081957;27;45636;-77
2021/09/11 10:46:04;;;;;;;;;1.75;1.75;;;;;20.80;55.20;101223.53;5082250;27;45831;-78
2021/09/11 10:48:43;;;;;;;;;1.50;1.50;;;;;20.84;54.89;101227.53;5075355;28;45602;-78
2021/09/11 10:51:33;;;;;;;;;2.00;2.00;;;;;20.86;54.71;101220.22;5082322;27;46643;-77
2021/09/11 10:54:07;;;;;;;;;2.00;2.00;;;;;20.90;54.45;101234.88;5074113;27;45606;-77
2021/09/11 10:57:01;;;;;;;;;1.00;1.00;;;;;20.87;54.24;101212.09;5087541;27;45854;-78
2021/09/11 10:59:32;;;;;;;;;1.75;1.75;;;;;20.91;53.96;101226.75;5087116;27;45738;-78
2021/09/11 11:02:08;;;;;;;;;2.00;1.25;;;;;20.97;54.09;101227.09;5090161;27;46501;-79
2021/09/11 11:04:38;;;;;;;;;1.50;1.00;;;;;21.00;54.27;101232.94;5084699;27;45607;-79
2021/09/11 11:07:06;;;;;;;;;1.75;1.00;;;;;21.01;53.63;101229.28;5074577;27;45861;-79
2021/09/11 11:09:35;;;;;;;;;0.00;0.00;;;;;21.04;53.93;101217.47;5077571;27;47326;-78
2021/09/11 11:12:03;;;;;;;;;3.25;2.50;;;;;21.12;53.97;101228.13;5094504;27;45664;-78
2021/09/11 11:14:33;;;;;;;;;1.50;1.00;;;;;21.16;53.98;101229.53;5103995;27;45375;-78
2021/09/11 11:16:59;;;;;;;;;2.00;1.25;;;;;21.20;53.30;101225.53;5080407;27;45560;-78
2021/09/11 11:19:33;;;;;;;;;3.00;3.00;;;;;21.27;53.69;101222.03;5104985;27;45719;-79
2021/09/11 11:22:09;;;;;;;;;2.75;2.75;;;;;21.32;53.14;101241.06;5112871;27;45708;-78
2021/09/11 11:24:37;;;;;;;;;3.50;3.00;;;;;21.33;53.54;101208.06;5112944;27;45559;-78
2021/09/11 11:27:05;;;;;;;;;2.50;2.00;;;;;21.38;52.93;101209.44;5094602;27;45140;-78